createdAt,value
2022-10-13T00:00:15.590Z,65.50
2022-10-13T00:02:43.424Z,65.40
2022-10-13T00:05:14.468Z,65.00
2022-10-13T00:07:42.437Z,64.50
2022-10-13T00:10:11.743Z,64.90
2022-10-13T00:12:39.819Z,65.80
2022-10-13T00:15:09.160Z,66.10
2022-10-13T00:17:37.409Z,65.80
2022-10-13T00:20:05.456Z,64.90
2022-10-13T00:22:33.323Z,64.80
2022-10-13T00:25:01.425Z,65.90
2022-10-13T00:27:35.747Z,65.60
2022-10-13T00:30:04.027Z,66.50
2022-10-13T00:32:31.900Z,67.50
2022-10-13T00:35:00.002Z,65.70
2022-10-13T00:37:28.111Z,66.10
2022-10-13T00:39:58.869Z,65.20
2022-10-13T00:42:27.248Z,66.20
2022-10-13T00:45:07.437Z,65.90
2022-10-13T00:47:36.613Z,65.20
2022-10-13T00:50:07.298Z,66.60
2022-10-13T00:52:35.189Z,65.20
2022-10-13T00:55:03.181Z,65.30
2022-10-13T00:57:31.317Z,64.70
2022-10-13T00:59:59.386Z,66.00
2022-10-13T01:02:29.284Z,65.30
2022-10-13T01:05:01.048Z,65.50
2022-10-13T01:07:28.937Z,66.80
2022-10-13T01:09:56.834Z,66.50
2022-10-13T01:12:28.128Z,66.30
2022-10-13T01:14:57.623Z,67.10
2022-10-13T01:17:29.136Z,67.10
2022-10-13T01:20:11.964Z,66.60
2022-10-13T01:22:48.864Z,65.30
2022-10-13T01:25:21.348Z,66.50
2022-10-13T01:27:55.352Z,66.70
2022-10-13T01:30:24.723Z,66.70
2022-10-13T01:33:07.543Z,66.70
2022-10-13T01:35:39.915Z,67.90
2022-10-13T01:38:08.959Z,69.10
2022-10-13T01:40:39.678Z,69.30
2022-10-13T01:43:08.382Z,67.90
2022-10-13T01:45:38.783Z,69.10
2022-10-13T01:48:07.187Z,68.20
2022-10-13T01:50:35.350Z,67.60
2022-10-13T01:53:03.993Z,67.30
2022-10-13T01:55:32.194Z,66.30
2022-10-13T01:58:00.092Z,67.00
2022-10-13T02:00:28.114Z,66.90
2022-10-13T02:02:59.807Z,65.90
2022-10-13T02:05:29.438Z,68.60
2022-10-13T02:07:58.321Z,68.30
2022-10-13T02:10:27.675Z,67.90
2022-10-13T02:12:57.366Z,67.30
2022-10-13T02:15:26.413Z,67.50
2022-10-13T02:17:54.252Z,67.10
2022-10-13T02:20:23.512Z,66.70
2022-10-13T02:22:52.700Z,66.00
2022-10-13T02:25:20.572Z,64.70
2022-10-13T02:27:48.432Z,65.10
2022-10-13T02:30:21.411Z,65.60
2022-10-13T02:32:49.301Z,65.00
2022-10-13T02:35:17.197Z,65.80
2022-10-13T02:37:46.576Z,65.60
2022-10-13T02:40:14.572Z,65.50
2022-10-13T02:42:42.539Z,64.40
2022-10-13T02:45:10.988Z,65.50
2022-10-13T02:47:38.880Z,67.30
2022-10-13T02:50:07.403Z,67.40
2022-10-13T02:52:35.311Z,67.40
2022-10-13T02:55:04.801Z,67.20
2022-10-13T02:57:32.690Z,67.50
2022-10-13T03:00:00.584Z,67.50
2022-10-13T03:02:28.435Z,67.30
2022-10-13T03:04:56.827Z,66.70
2022-10-13T03:07:24.680Z,68.00
2022-10-13T03:09:52.611Z,66.90
2022-10-13T03:12:22.088Z,66.00
2022-10-13T03:14:50.206Z,66.90
2022-10-13T03:17:18.345Z,67.80
2022-10-13T03:19:46.224Z,67.50
2022-10-13T03:22:15.497Z,67.90
2022-10-13T03:24:43.475Z,67.80
2022-10-13T03:27:11.355Z,68.00
2022-10-13T03:29:40.627Z,67.40
2022-10-13T03:32:08.464Z,66.70
2022-10-13T03:34:36.359Z,67.20
2022-10-13T03:37:04.262Z,66.70
2022-10-13T03:39:32.158Z,67.60
2022-10-13T03:42:00.027Z,67.60
2022-10-13T03:44:28.221Z,67.40
2022-10-13T03:46:57.478Z,68.50
2022-10-13T03:49:25.385Z,68.20
2022-10-13T03:51:53.219Z,67.40
2022-10-13T03:54:21.108Z,66.90
2022-10-13T03:56:49.030Z,67.90
2022-10-13T03:59:18.638Z,67.30
2022-10-13T04:01:46.537Z,67.30
2022-10-13T04:04:15.850Z,68.00
2022-10-13T04:06:43.742Z,68.10
2022-10-13T04:09:11.641Z,67.30
2022-10-13T04:11:39.490Z,67.60
2022-10-13T04:14:07.574Z,67.30
2022-10-13T04:16:35.426Z,68.00
2022-10-13T04:19:03.853Z,69.10
2022-10-13T04:21:33.463Z,68.70
2022-10-13T04:24:01.503Z,68.60
2022-10-13T04:26:29.727Z,68.60
2022-10-13T04:28:57.620Z,69.30
2022-10-13T04:31:25.493Z,69.10
2022-10-13T04:33:54.094Z,70.20
2022-10-13T04:36:22.209Z,70.30
2022-10-13T04:38:51.475Z,69.40
2022-10-13T04:41:19.325Z,69.10
2022-10-13T04:43:48.415Z,69.00
2022-10-13T04:46:17.060Z,68.50
2022-10-13T04:48:45.289Z,68.50
2022-10-13T04:51:13.950Z,68.20
2022-10-13T04:53:42.133Z,68.80
2022-10-13T04:56:11.686Z,68.60
2022-10-13T04:58:39.590Z,67.50
2022-10-13T05:01:08.060Z,67.90
2022-10-13T05:03:36.398Z,68.40
2022-10-13T05:06:04.349Z,68.50
2022-10-13T05:08:33.322Z,68.20
2022-10-13T05:11:02.240Z,68.20
2022-10-13T05:13:31.532Z,67.70
2022-10-13T05:15:59.523Z,68.00
2022-10-13T05:18:27.430Z,67.90
2022-10-13T05:20:55.326Z,68.30
2022-10-13T05:23:23.599Z,69.20
2022-10-13T05:25:51.454Z,69.70
2022-10-13T05:28:19.350Z,68.70
2022-10-13T05:30:48.694Z,68.90
2022-10-13T05:33:17.970Z,68.10
2022-10-13T05:35:45.834Z,68.90
2022-10-13T05:38:13.855Z,68.60
2022-10-13T05:40:41.784Z,69.20
2022-10-13T05:43:09.623Z,68.70
2022-10-13T05:45:37.496Z,68.60
2022-10-13T05:48:07.141Z,68.10
2022-10-13T05:50:35.403Z,68.80
2022-10-13T05:53:03.280Z,68.70
2022-10-13T05:55:31.160Z,68.70
2022-10-13T05:57:59.595Z,68.40
2022-10-13T06:00:27.713Z,68.50
2022-10-13T06:02:56.044Z,67.90
2022-10-13T06:05:25.760Z,69.00
2022-10-13T06:07:53.621Z,68.80
2022-10-13T06:10:21.543Z,69.00
2022-10-13T06:12:49.412Z,69.90
2022-10-13T06:15:17.290Z,69.60
2022-10-13T06:17:45.577Z,72.40
2022-10-13T06:20:13.542Z,73.50
2022-10-13T06:22:42.775Z,72.30
2022-10-13T06:25:10.954Z,71.80
2022-10-13T06:27:38.894Z,70.90
2022-10-13T06:30:07.277Z,70.80
2022-10-13T06:32:35.250Z,70.50
2022-10-13T06:35:03.321Z,71.20
2022-10-13T06:37:31.215Z,71.90
2022-10-13T06:40:00.510Z,70.10
2022-10-13T06:42:30.985Z,70.00
2022-10-13T06:44:58.924Z,70.10
2022-10-13T06:47:26.817Z,69.60
2022-10-13T06:49:54.694Z,68.70
2022-10-13T06:52:22.810Z,68.10
2022-10-13T06:54:50.836Z,67.70
2022-10-13T06:57:20.072Z,67.60
2022-10-13T06:59:48.342Z,66.50
2022-10-13T07:02:16.223Z,66.80
2022-10-13T07:04:44.182Z,64.90
2022-10-13T07:07:12.054Z,64.70
2022-10-13T07:09:39.950Z,65.30
2022-10-13T07:12:08.133Z,65.90
2022-10-13T07:14:39.288Z,66.90
2022-10-13T07:17:09.538Z,66.90
2022-10-13T07:19:37.473Z,66.20
2022-10-13T07:22:05.347Z,66.50
2022-10-13T07:24:33.215Z,66.80
2022-10-13T07:27:06.784Z,66.70
2022-10-13T07:29:37.360Z,66.70
2022-10-13T07:32:06.125Z,63.60
2022-10-13T07:34:34.054Z,62.30
2022-10-13T07:37:01.902Z,60.40
2022-10-13T07:39:29.791Z,61.10
2022-10-13T07:41:57.824Z,62.40
2022-10-13T07:44:25.801Z,62.00
2022-10-13T07:46:55.094Z,63.30
2022-10-13T07:49:23.117Z,64.60
2022-10-13T07:51:51.012Z,63.90
2022-10-13T07:54:22.561Z,64.80
2022-10-13T07:56:53.547Z,66.20
2022-10-13T07:59:21.549Z,66.40
2022-10-13T08:01:49.490Z,64.10
2022-10-13T08:04:18.800Z,63.90
2022-10-13T08:06:46.688Z,64.60
2022-10-13T08:09:14.585Z,63.30
2022-10-13T08:11:42.468Z,62.30
2022-10-13T08:14:11.974Z,63.30
2022-10-13T08:16:41.878Z,65.60
2022-10-13T08:19:09.777Z,65.50
2022-10-13T08:21:57.655Z,65.20
2022-10-13T08:24:27.204Z,65.50
2022-10-13T08:26:55.106Z,67.80
2022-10-13T08:29:24.096Z,66.60
2022-10-13T08:31:52.674Z,65.90
2022-10-13T08:34:20.940Z,65.60
2022-10-13T08:36:53.041Z,64.70
2022-10-13T08:39:21.354Z,65.50
2022-10-13T08:41:49.203Z,66.40
2022-10-13T08:47:08.263Z,66.00
2022-10-13T08:49:36.155Z,65.50
2022-10-13T08:52:05.879Z,64.60
2022-10-13T08:54:33.841Z,65.10
2022-10-13T08:59:29.536Z,64.00
2022-10-13T09:01:57.508Z,64.00
2022-10-13T09:04:27.805Z,64.30
2022-10-13T09:06:56.250Z,64.80
2022-10-13T09:09:25.638Z,63.90
2022-10-13T09:11:53.531Z,65.40
2022-10-13T09:14:22.059Z,65.80
2022-10-13T09:16:50.053Z,64.70
2022-10-13T09:19:22.399Z,65.00
2022-10-13T09:21:50.284Z,64.60
2022-10-13T09:24:18.690Z,64.60
2022-10-13T09:26:48.509Z,65.20
2022-10-13T09:29:17.889Z,64.40
2022-10-13T09:31:45.743Z,64.90
2022-10-13T09:34:15.447Z,65.30
2022-10-13T09:36:59.223Z,66.00
2022-10-13T09:39:27.379Z,67.20
2022-10-13T09:42:09.804Z,66.50
2022-10-13T09:44:37.733Z,67.10
2022-10-13T09:47:05.797Z,67.20
2022-10-13T09:49:35.850Z,66.80
2022-10-13T09:52:04.162Z,67.40
2022-10-13T09:54:38.097Z,67.80
2022-10-13T09:57:08.795Z,66.80
2022-10-13T09:59:37.033Z,65.80
2022-10-13T10:02:05.190Z,65.70
2022-10-13T10:04:33.429Z,65.60
2022-10-13T10:07:01.622Z,65.60
2022-10-13T10:09:34.595Z,66.20
2022-10-13T10:12:02.666Z,66.20
2022-10-13T10:14:32.385Z,67.60
2022-10-13T10:17:02.454Z,67.10
2022-10-13T10:19:30.817Z,65.40
2022-10-13T10:22:03.912Z,66.90
2022-10-13T10:24:33.653Z,66.60
2022-10-13T10:27:02.482Z,66.80
2022-10-13T10:29:33.689Z,67.40
2022-10-13T10:32:16.418Z,66.70
2022-10-13T10:34:46.673Z,67.10
2022-10-13T10:37:25.112Z,66.10
2022-10-13T10:39:55.719Z,65.60
2022-10-13T10:42:39.198Z,65.90
2022-10-13T10:45:10.703Z,66.10
2022-10-13T10:47:39.561Z,65.10
2022-10-13T10:50:07.838Z,65.10
2022-10-13T10:52:38.487Z,65.00
2022-10-13T10:55:09.576Z,64.70
2022-10-13T10:57:39.414Z,65.30
2022-10-13T11:00:10.921Z,64.20
2022-10-13T11:02:42.437Z,64.90
2022-10-13T11:05:10.470Z,66.10
2022-10-13T11:07:57.637Z,66.20
2022-10-13T11:10:26.478Z,64.50
2022-10-13T11:13:22.420Z,64.00
2022-10-13T11:15:51.774Z,64.00
2022-10-13T11:18:38.519Z,63.10
2022-10-13T11:21:06.455Z,61.50
2022-10-13T11:23:34.655Z,61.70
2022-10-13T11:26:26.231Z,62.40
2022-10-13T11:28:54.152Z,62.00
2022-10-13T11:31:29.773Z,61.40
2022-10-13T11:34:00.879Z,61.30
2022-10-13T11:36:47.897Z,62.20
2022-10-13T11:39:34.272Z,61.70
2022-10-13T11:42:04.206Z,61.20
2022-10-13T11:44:32.779Z,60.40
2022-10-13T11:47:03.859Z,60.60
2022-10-13T11:49:42.222Z,59.60
2022-10-13T11:52:22.995Z,60.30
2022-10-13T11:54:51.520Z,60.70
2022-10-13T11:57:20.016Z,60.80
2022-10-13T11:59:47.978Z,60.20
2022-10-13T12:02:19.133Z,59.80
2022-10-13T12:04:59.905Z,59.70
2022-10-13T12:07:27.812Z,59.70
2022-10-13T12:09:57.164Z,60.00
2022-10-13T12:12:24.994Z,59.00
2022-10-13T12:14:53.462Z,58.50
2022-10-13T12:17:24.133Z,58.80
2022-10-13T12:19:52.351Z,58.00
2022-10-13T12:22:20.283Z,59.60
2022-10-13T12:24:57.390Z,58.70
2022-10-13T12:27:25.316Z,58.00
2022-10-13T12:29:53.255Z,57.90
2022-10-13T12:32:21.422Z,58.40
2022-10-13T12:34:50.726Z,57.80
2022-10-13T12:37:22.510Z,59.30
2022-10-13T12:39:50.648Z,58.10
2022-10-13T12:42:18.566Z,58.30
2022-10-13T12:44:46.407Z,58.30
2022-10-13T12:47:29.174Z,59.10
2022-10-13T12:50:12.000Z,59.40
2022-10-13T12:52:41.445Z,59.50
2022-10-13T12:55:13.638Z,59.10
2022-10-13T12:57:41.964Z,58.90
2022-10-13T13:00:20.237Z,59.60
2022-10-13T13:02:49.044Z,58.60
2022-10-13T13:05:33.452Z,60.50
2022-10-13T13:08:02.871Z,59.80
2022-10-13T13:10:31.257Z,60.30
2022-10-13T13:13:03.496Z,59.00
2022-10-13T13:15:32.935Z,60.10
2022-10-13T13:18:19.638Z,59.30
2022-10-13T13:20:47.587Z,59.30
2022-10-13T13:23:19.192Z,60.20
2022-10-13T13:25:47.222Z,59.10
2022-10-13T13:28:16.011Z,58.20
2022-10-13T13:30:44.597Z,59.40
2022-10-13T13:33:12.704Z,60.30
2022-10-13T13:35:40.901Z,60.00
2022-10-13T13:38:08.835Z,59.40
2022-10-13T13:40:38.089Z,59.60
2022-10-13T13:43:05.996Z,59.90
2022-10-13T13:45:33.863Z,60.60
2022-10-13T13:48:01.766Z,60.20
2022-10-13T13:50:32.140Z,60.10
2022-10-13T13:53:00.122Z,59.60
2022-10-13T13:55:29.630Z,60.20
2022-10-13T13:57:58.935Z,60.90
2022-10-13T14:00:27.628Z,60.90
2022-10-13T14:02:55.678Z,60.20
2022-10-13T14:05:23.698Z,59.40
2022-10-13T14:07:53.878Z,59.90
2022-10-13T14:10:21.747Z,60.50
2022-10-13T14:12:49.792Z,59.90
2022-10-13T14:15:19.185Z,60.20
2022-10-13T14:17:47.111Z,59.70
2022-10-13T14:20:15.079Z,59.20
2022-10-13T14:22:43.302Z,58.40
2022-10-13T14:25:11.443Z,59.00
2022-10-13T14:27:39.451Z,59.30
2022-10-13T14:30:07.701Z,58.50
2022-10-13T14:32:37.398Z,58.50
2022-10-13T14:35:05.556Z,59.70
2022-10-13T14:37:34.048Z,59.10
2022-10-13T14:40:02.320Z,59.10
2022-10-13T14:42:30.194Z,59.10
2022-10-13T14:44:58.216Z,59.50
2022-10-13T14:47:26.168Z,58.50
2022-10-13T14:49:55.415Z,58.30
2022-10-13T14:52:23.343Z,57.10
2022-10-13T14:54:51.221Z,58.80
2022-10-13T14:57:19.535Z,58.80
2022-10-13T14:59:47.580Z,58.90
2022-10-13T15:02:15.469Z,59.30
2022-10-13T15:04:43.429Z,59.80
2022-10-13T15:07:13.257Z,60.10
2022-10-13T15:10:07.177Z,59.50
2022-10-13T15:12:29.289Z,59.70
2022-10-13T15:15:11.274Z,59.90
2022-10-13T15:21:05.721Z,59.80
2022-10-13T15:23:57.104Z,59.60
2022-10-13T15:26:41.136Z,59.70
2022-10-13T15:29:26.167Z,60.60
2022-10-13T15:32:01.065Z,59.70
2022-10-13T15:34:36.441Z,62.00
2022-10-13T15:37:21.884Z,63.00
2022-10-13T15:39:57.598Z,62.30
2022-10-13T15:42:29.336Z,61.60
2022-10-13T15:45:09.298Z,62.00
2022-10-13T15:48:05.090Z,62.20
2022-10-13T15:50:52.124Z,61.70
2022-10-13T15:53:51.346Z,61.60
2022-10-13T15:56:43.628Z,61.90
2022-10-13T15:59:23.148Z,62.20
2022-10-13T16:02:50.220Z,62.00
2022-10-13T16:06:04.220Z,62.10
2022-10-13T16:22:05.110Z,62.80
2022-10-13T16:31:15.624Z,62.50
2022-10-13T16:33:46.953Z,62.40
2022-10-13T16:39:09.129Z,63.00
2022-10-13T16:41:42.661Z,63.30
2022-10-13T16:44:19.972Z,63.70
2022-10-13T16:47:06.685Z,63.80
2022-10-13T16:49:49.759Z,64.70
2022-10-13T16:52:22.386Z,64.30
2022-10-13T16:54:59.769Z,64.40
2022-10-13T16:57:48.919Z,64.40
2022-10-13T17:00:29.044Z,64.30
2022-10-13T17:03:05.590Z,64.00
2022-10-13T17:05:42.607Z,63.70
2022-10-13T17:08:25.302Z,64.20
2022-10-13T17:11:07.470Z,64.50
2022-10-13T17:13:47.801Z,64.90
2022-10-13T17:16:36.945Z,65.10
2022-10-13T17:19:06.949Z,66.00
2022-10-13T17:21:47.358Z,64.90
2022-10-13T17:25:00.874Z,65.10
2022-10-13T17:27:40.582Z,66.00
2022-10-13T17:30:16.798Z,64.90
2022-10-13T17:36:14.057Z,65.30
2022-10-13T17:44:45.619Z,64.40
2022-10-13T17:47:29.003Z,64.10
2022-10-13T17:50:10.181Z,65.30
2022-10-13T17:53:19.505Z,66.50
2022-10-13T17:56:02.036Z,66.90
2022-10-13T17:58:40.439Z,66.20
2022-10-13T18:01:26.860Z,67.60
2022-10-13T18:03:58.272Z,67.00
2022-10-13T18:06:45.517Z,65.80
2022-10-13T18:09:25.628Z,65.00
2022-10-13T18:12:00.390Z,65.00
2022-10-13T18:14:39.103Z,65.30
2022-10-13T18:17:20.482Z,66.90
2022-10-13T18:20:00.408Z,67.60
2022-10-13T18:22:45.182Z,67.70
2022-10-13T18:25:15.632Z,67.70
2022-10-13T18:28:09.573Z,67.00
2022-10-13T18:30:42.490Z,66.20
2022-10-13T18:33:19.814Z,65.90
2022-10-13T18:36:00.183Z,65.90
2022-10-13T18:38:37.834Z,66.90
2022-10-13T18:41:28.898Z,66.90
2022-10-13T18:44:03.609Z,67.30
2022-10-13T18:46:48.422Z,67.90
2022-10-13T18:52:35.047Z,66.70
2022-10-13T18:55:11.725Z,67.00
2022-10-13T18:58:03.135Z,66.70
2022-10-13T19:00:41.351Z,66.20
2022-10-13T19:03:45.129Z,66.70
2022-10-13T19:06:27.160Z,65.90
2022-10-13T19:09:14.442Z,66.60
2022-10-13T19:11:48.845Z,65.70
2022-10-13T19:14:33.797Z,65.70
2022-10-13T19:17:14.706Z,65.90
2022-10-13T19:19:53.574Z,67.30
2022-10-13T19:28:52.788Z,66.80
2022-10-13T19:31:32.706Z,67.00
2022-10-13T19:36:59.183Z,67.10
2022-10-13T19:39:36.922Z,66.00
2022-10-13T19:45:28.064Z,67.10
2022-10-13T19:48:28.146Z,66.70
2022-10-13T19:51:19.009Z,66.90
2022-10-13T19:54:00.947Z,66.60
2022-10-13T19:59:53.286Z,67.00
2022-10-13T20:02:30.695Z,66.70
2022-10-13T20:11:33.355Z,65.60
2022-10-13T20:14:24.543Z,65.00
2022-10-13T20:23:25.382Z,66.50
2022-10-13T20:26:33.354Z,65.80
2022-10-13T20:29:15.214Z,67.10
2022-10-13T20:32:22.740Z,66.50
2022-10-13T20:35:37.563Z,66.20
2022-10-13T20:38:26.253Z,66.30
2022-10-13T20:46:53.548Z,66.70
2022-10-13T20:49:30.911Z,67.00
2022-10-13T20:52:18.619Z,66.10
2022-10-13T20:54:59.700Z,65.90
2022-10-13T20:57:38.351Z,65.60
2022-10-13T21:00:17.680Z,66.30
2022-10-13T21:02:51.402Z,66.30
2022-10-13T21:05:37.687Z,66.10
2022-10-13T21:08:17.888Z,66.30
2022-10-13T21:10:57.255Z,67.00
2022-10-13T21:13:32.742Z,66.60
2022-10-13T21:16:14.339Z,65.20
2022-10-13T21:18:56.630Z,64.80
2022-10-13T21:21:34.605Z,65.40
2022-10-13T21:27:00.907Z,66.10
2022-10-13T21:29:33.328Z,65.90
2022-10-13T21:32:22.039Z,66.60
2022-10-13T21:34:56.890Z,67.60
2022-10-13T21:37:33.040Z,66.40
2022-10-13T21:40:16.468Z,66.50
2022-10-13T21:42:59.213Z,65.40
2022-10-13T21:45:41.293Z,65.70
2022-10-13T21:48:15.362Z,66.80
2022-10-13T21:50:55.398Z,66.90
2022-10-13T21:53:34.972Z,67.30
2022-10-13T21:56:18.076Z,67.40
2022-10-13T21:58:57.780Z,66.80
2022-10-13T22:01:37.518Z,66.30
2022-10-13T22:04:14.958Z,66.40
2022-10-13T22:06:59.701Z,67.00
2022-10-13T22:09:41.840Z,66.90
2022-10-13T22:12:16.251Z,67.10
2022-10-13T22:14:59.577Z,67.20
2022-10-13T22:17:42.871Z,66.60
2022-10-13T22:20:23.229Z,67.50
2022-10-13T22:23:34.288Z,68.90
2022-10-13T22:26:11.382Z,67.70
2022-10-13T22:29:01.014Z,67.50
2022-10-13T22:31:40.534Z,68.00
2022-10-13T22:34:09.868Z,68.00
2022-10-13T22:36:56.332Z,68.20
2022-10-13T22:39:36.245Z,67.10
2022-10-13T22:42:10.747Z,66.30
2022-10-13T22:44:48.307Z,66.00
2022-10-13T22:47:26.048Z,65.50
2022-10-13T22:50:18.169Z,65.50
2022-10-13T22:52:53.420Z,65.80
2022-10-13T22:55:30.414Z,65.00
2022-10-13T22:58:15.392Z,66.20
2022-10-13T23:00:55.724Z,66.20
2022-10-13T23:03:29.494Z,65.80
2022-10-13T23:06:18.077Z,65.50
2022-10-13T23:08:54.307Z,66.40
2022-10-13T23:11:30.496Z,66.00
2022-10-13T23:14:06.991Z,67.10
2022-10-13T23:16:53.355Z,67.70
2022-10-13T23:19:39.319Z,67.00
2022-10-13T23:22:16.302Z,66.70
2022-10-13T23:24:59.128Z,67.30
2022-10-13T23:27:31.651Z,65.70
2022-10-13T23:30:19.644Z,67.20
2022-10-13T23:33:00.387Z,67.00
2022-10-13T23:35:36.685Z,66.20
2022-10-13T23:38:21.085Z,65.20
2022-10-13T23:40:53.588Z,66.60
2022-10-13T23:43:34.051Z,66.80
2022-10-13T23:46:21.395Z,65.40
2022-10-13T23:48:57.779Z,64.80
2022-10-13T23:51:37.753Z,64.90
2022-10-13T23:54:15.065Z,67.30
2022-10-13T23:57:03.027Z,67.10
2022-10-13T23:59:38.341Z,66.20
